Yurovsk, Russia
Current Conditions -  °F | °C
As of 5:00 AM on Wednesday 26 Nov 2014 (Local Time) from USHH Reporting Station
Overcast Overcast  
Wind Chill: 13°   Ceiling: 8000
Heat Index: 21°   Visibility: 6mi
Dew Point: 16°   Wind: 7mph
Humidity: 80%   Direction: 250°WSW
Pressure: 29.5"   Gusts: NA
Location:  59.47°N, 69.07°E
Report Text: USHH 260000Z 25003MPS 9999 SCT023 OVC080 M06/M09 Q0999 TEMPO2000 SN BKN007 RMK QFE745 24////33
Loading
Personal Weather Stations






























Interactive Weather Map New forecast layout! Learn more

10-Day Weather Forecast

Advertisements
Track Severe Weather on mobile